sensor_id;sensor_type;location;lat;lon;timestamp;temperature;humidity
63445;DHT22;49573;47.682;9.170;2023-05-16T00:02:06;12.30;85.30
63445;DHT22;49573;47.682;9.170;2023-05-16T00:04:54;12.30;85.40
63445;DHT22;49573;47.682;9.170;2023-05-16T00:07:42;12.30;85.20
63445;DHT22;49573;47.682;9.170;2023-05-16T00:10:28;12.30;84.90
63445;DHT22;49573;47.682;9.170;2023-05-16T00:13:14;12.40;85.10
63445;DHT22;49573;47.682;9.170;2023-05-16T00:16:01;12.40;85.00
63445;DHT22;49573;47.682;9.170;2023-05-16T00:18:47;12.40;85.20
63445;DHT22;49573;47.682;9.170;2023-05-16T00:21:34;12.40;85.00
63445;DHT22;49573;47.682;9.170;2023-05-16T00:24:20;12.40;85.20
63445;DHT22;49573;47.682;9.170;2023-05-16T00:27:06;12.40;85.00
63445;DHT22;49573;47.682;9.170;2023-05-16T00:29:52;12.40;85.10
63445;DHT22;49573;47.682;9.170;2023-05-16T00:32:38;12.40;84.90
63445;DHT22;49573;47.682;9.170;2023-05-16T00:35:25;12.40;85.00
63445;DHT22;49573;47.682;9.170;2023-05-16T00:38:12;12.40;84.80
63445;DHT22;49573;47.682;9.170;2023-05-16T00:40:58;12.40;84.80
63445;DHT22;49573;47.682;9.170;2023-05-16T00:43:44;12.40;84.90
63445;DHT22;49573;47.682;9.170;2023-05-16T00:46:30;12.40;84.40
63445;DHT22;49573;47.682;9.170;2023-05-16T00:49:16;12.30;84.90
63445;DHT22;49573;47.682;9.170;2023-05-16T00:52:03;12.40;84.80
63445;DHT22;49573;47.682;9.170;2023-05-16T00:54:51;12.30;84.70
63445;DHT22;49573;47.682;9.170;2023-05-16T00:57:37;12.30;84.70
63445;DHT22;49573;47.682;9.170;2023-05-16T01:00:23;12.30;84.80
63445;DHT22;49573;47.682;9.170;2023-05-16T01:03:10;12.30;84.90
63445;DHT22;49573;47.682;9.170;2023-05-16T01:05:57;12.20;84.90
63445;DHT22;49573;47.682;9.170;2023-05-16T01:08:43;12.20;84.90
63445;DHT22;49573;47.682;9.170;2023-05-16T01:11:35;12.20;84.70
63445;DHT22;49573;47.682;9.170;2023-05-16T01:14:28;12.20;84.70
63445;DHT22;49573;47.682;9.170;2023-05-16T01:17:24;12.20;84.50
63445;DHT22;49573;47.682;9.170;2023-05-16T01:20:17;12.10;84.40
63445;DHT22;49573;47.682;9.170;2023-05-16T01:23:18;12.10;84.40
63445;DHT22;49573;47.682;9.170;2023-05-16T01:26:15;12.10;84.60
63445;DHT22;49573;47.682;9.170;2023-05-16T01:29:02;12.10;84.60
63445;DHT22;49573;47.682;9.170;2023-05-16T01:31:48;12.00;84.50
63445;DHT22;49573;47.682;9.170;2023-05-16T01:34:35;12.00;84.60
63445;DHT22;49573;47.682;9.170;2023-05-16T01:37:28;12.00;84.50
63445;DHT22;49573;47.682;9.170;2023-05-16T01:40:20;12.00;84.30
63445;DHT22;49573;47.682;9.170;2023-05-16T01:43:12;12.00;84.50
63445;DHT22;49573;47.682;9.170;2023-05-16T01:46:03;12.00;84.60
63445;DHT22;49573;47.682;9.170;2023-05-16T01:48:55;12.00;84.40
63445;DHT22;49573;47.682;9.170;2023-05-16T01:51:49;11.90;84.50
63445;DHT22;49573;47.682;9.170;2023-05-16T01:54:37;11.90;84.70
63445;DHT22;49573;47.682;9.170;2023-05-16T01:57:25;11.90;84.50
63445;DHT22;49573;47.682;9.170;2023-05-16T02:00:14;11.90;84.50
63445;DHT22;49573;47.682;9.170;2023-05-16T02:03:00;11.90;84.50
63445;DHT22;49573;47.682;9.170;2023-05-16T02:05:47;11.90;84.80
63445;DHT22;49573;47.682;9.170;2023-05-16T02:08:33;11.90;84.90
63445;DHT22;49573;47.682;9.170;2023-05-16T02:11:19;11.90;84.90
63445;DHT22;49573;47.682;9.170;2023-05-16T02:14:05;11.90;84.80
63445;DHT22;49573;47.682;9.170;2023-05-16T02:16:53;11.90;84.90
63445;DHT22;49573;47.682;9.170;2023-05-16T02:19:39;11.80;84.90
63445;DHT22;49573;47.682;9.170;2023-05-16T02:22:26;11.90;84.90
63445;DHT22;49573;47.682;9.170;2023-05-16T02:25:13;11.80;84.90
63445;DHT22;49573;47.682;9.170;2023-05-16T02:28:00;11.90;84.70
63445;DHT22;49573;47.682;9.170;2023-05-16T02:30:55;11.80;84.70
63445;DHT22;49573;47.682;9.170;2023-05-16T02:33:43;11.80;84.40
63445;DHT22;49573;47.682;9.170;2023-05-16T02:36:29;11.80;84.00
63445;DHT22;49573;47.682;9.170;2023-05-16T02:39:15;11.80;84.10
63445;DHT22;49573;47.682;9.170;2023-05-16T02:42:01;11.70;84.10
63445;DHT22;49573;47.682;9.170;2023-05-16T02:44:47;11.70;83.90
63445;DHT22;49573;47.682;9.170;2023-05-16T02:47:34;11.70;83.90
63445;DHT22;49573;47.682;9.170;2023-05-16T02:50:21;11.70;83.90
63445;DHT22;49573;47.682;9.170;2023-05-16T02:53:07;11.70;84.00
63445;DHT22;49573;47.682;9.170;2023-05-16T02:55:53;11.60;84.40
63445;DHT22;49573;47.682;9.170;2023-05-16T02:58:39;11.60;84.40
63445;DHT22;49573;47.682;9.170;2023-05-16T03:01:26;11.50;84.50
63445;DHT22;49573;47.682;9.170;2023-05-16T03:04:12;11.50;84.50
63445;DHT22;49573;47.682;9.170;2023-05-16T03:07:00;11.40;84.40
63445;DHT22;49573;47.682;9.170;2023-05-16T03:09:46;11.30;84.80
63445;DHT22;49573;47.682;9.170;2023-05-16T03:12:32;11.30;84.60
63445;DHT22;49573;47.682;9.170;2023-05-16T03:15:18;11.20;84.60
63445;DHT22;49573;47.682;9.170;2023-05-16T03:18:04;11.20;84.60
63445;DHT22;49573;47.682;9.170;2023-05-16T03:20:50;11.20;84.70
63445;DHT22;49573;47.682;9.170;2023-05-16T03:23:38;11.20;84.80
63445;DHT22;49573;47.682;9.170;2023-05-16T03:26:24;11.20;84.90
63445;DHT22;49573;47.682;9.170;2023-05-16T03:29:10;11.20;85.00
63445;DHT22;49573;47.682;9.170;2023-05-16T03:31:57;11.20;85.00
63445;DHT22;49573;47.682;9.170;2023-05-16T03:34:43;11.20;85.20
63445;DHT22;49573;47.682;9.170;2023-05-16T03:37:29;11.20;85.20
63445;DHT22;49573;47.682;9.170;2023-05-16T03:40:16;11.20;85.40
63445;DHT22;49573;47.682;9.170;2023-05-16T03:43:03;11.20;85.30
63445;DHT22;49573;47.682;9.170;2023-05-16T03:45:49;11.20;85.60
63445;DHT22;49573;47.682;9.170;2023-05-16T03:48:35;11.20;85.60
63445;DHT22;49573;47.682;9.170;2023-05-16T03:51:21;11.20;85.50
63445;DHT22;49573;47.682;9.170;2023-05-16T03:54:07;11.20;85.50
63445;DHT22;49573;47.682;9.170;2023-05-16T03:56:54;11.10;85.40
63445;DHT22;49573;47.682;9.170;2023-05-16T03:59:40;11.10;85.40
63445;DHT22;49573;47.682;9.170;2023-05-16T04:02:26;11.00;85.60
63445;DHT22;49573;47.682;9.170;2023-05-16T04:05:12;11.00;85.50
63445;DHT22;49573;47.682;9.170;2023-05-16T04:07:59;10.90;85.30
63445;DHT22;49573;47.682;9.170;2023-05-16T04:10:45;10.90;85.20
63445;DHT22;49573;47.682;9.170;2023-05-16T04:13:32;10.80;85.30
63445;DHT22;49573;47.682;9.170;2023-05-16T04:16:19;10.80;85.60
63445;DHT22;49573;47.682;9.170;2023-05-16T04:19:05;10.80;86.00
63445;DHT22;49573;47.682;9.170;2023-05-16T04:24:38;10.90;86.60
63445;DHT22;49573;47.682;9.170;2023-05-16T04:27:24;10.90;86.60
63445;DHT22;49573;47.682;9.170;2023-05-16T04:30:13;11.00;86.60
63445;DHT22;49573;47.682;9.170;2023-05-16T04:32:59;11.10;86.40
63445;DHT22;49573;47.682;9.170;2023-05-16T04:35:46;11.00;86.70
63445;DHT22;49573;47.682;9.170;2023-05-16T04:38:33;11.00;86.70
63445;DHT22;49573;47.682;9.170;2023-05-16T04:41:19;11.10;86.80
63445;DHT22;49573;47.682;9.170;2023-05-16T04:44:05;11.10;86.50
63445;DHT22;49573;47.682;9.170;2023-05-16T04:46:52;11.30;86.50
63445;DHT22;49573;47.682;9.170;2023-05-16T04:49:38;11.20;86.20
63445;DHT22;49573;47.682;9.170;2023-05-16T04:52:24;11.30;86.20
63445;DHT22;49573;47.682;9.170;2023-05-16T04:55:10;11.30;86.00
63445;DHT22;49573;47.682;9.170;2023-05-16T04:57:56;11.40;85.90
63445;DHT22;49573;47.682;9.170;2023-05-16T05:00:43;11.40;86.10
63445;DHT22;49573;47.682;9.170;2023-05-16T05:03:30;11.50;86.10
63445;DHT22;49573;47.682;9.170;2023-05-16T05:06:16;11.50;85.90
63445;DHT22;49573;47.682;9.170;2023-05-16T05:09:02;11.60;86.00
63445;DHT22;49573;47.682;9.170;2023-05-16T05:11:50;11.60;85.80
63445;DHT22;49573;47.682;9.170;2023-05-16T05:14:37;11.60;85.90
63445;DHT22;49573;47.682;9.170;2023-05-16T05:17:23;11.70;85.70
63445;DHT22;49573;47.682;9.170;2023-05-16T05:20:11;11.70;85.40
63445;DHT22;49573;47.682;9.170;2023-05-16T05:22:58;11.80;85.50
63445;DHT22;49573;47.682;9.170;2023-05-16T05:25:44;11.80;83.90
63445;DHT22;49573;47.682;9.170;2023-05-16T05:28:30;11.90;83.90
63445;DHT22;49573;47.682;9.170;2023-05-16T05:31:16;11.90;83.40
63445;DHT22;49573;47.682;9.170;2023-05-16T05:34:02;12.00;82.90
63445;DHT22;49573;47.682;9.170;2023-05-16T05:36:50;12.00;83.20
63445;DHT22;49573;47.682;9.170;2023-05-16T05:39:36;12.10;82.70
63445;DHT22;49573;47.682;9.170;2023-05-16T05:42:22;12.20;82.60
63445;DHT22;49573;47.682;9.170;2023-05-16T05:45:09;12.20;82.60
63445;DHT22;49573;47.682;9.170;2023-05-16T05:47:55;12.30;82.40
63445;DHT22;49573;47.682;9.170;2023-05-16T05:50:41;12.40;82.60
63445;DHT22;49573;47.682;9.170;2023-05-16T05:53:29;12.50;81.80
63445;DHT22;49573;47.682;9.170;2023-05-16T05:56:15;12.50;80.90
63445;DHT22;49573;47.682;9.170;2023-05-16T05:59:01;12.50;81.40
63445;DHT22;49573;47.682;9.170;2023-05-16T06:01:47;12.50;81.00
63445;DHT22;49573;47.682;9.170;2023-05-16T06:04:37;12.60;80.30
63445;DHT22;49573;47.682;9.170;2023-05-16T06:07:23;12.60;81.10
63445;DHT22;49573;47.682;9.170;2023-05-16T06:10:11;12.60;80.70
63445;DHT22;49573;47.682;9.170;2023-05-16T06:12:57;12.70;80.60
63445;DHT22;49573;47.682;9.170;2023-05-16T06:15:43;12.70;80.10
63445;DHT22;49573;47.682;9.170;2023-05-16T06:18:29;12.70;80.20
63445;DHT22;49573;47.682;9.170;2023-05-16T06:21:16;12.80;79.90
63445;DHT22;49573;47.682;9.170;2023-05-16T06:24:02;12.80;80.20
63445;DHT22;49573;47.682;9.170;2023-05-16T06:26:49;12.90;79.90
63445;DHT22;49573;47.682;9.170;2023-05-16T06:29:35;12.90;79.50
63445;DHT22;49573;47.682;9.170;2023-05-16T06:32:21;13.00;79.20
63445;DHT22;49573;47.682;9.170;2023-05-16T06:35:08;13.20;79.00
63445;DHT22;49573;47.682;9.170;2023-05-16T06:37:54;13.20;78.40
63445;DHT22;49573;47.682;9.170;2023-05-16T06:40:40;13.40;78.50
63445;DHT22;49573;47.682;9.170;2023-05-16T06:43:28;13.60;78.10
63445;DHT22;49573;47.682;9.170;2023-05-16T06:46:14;13.70;77.60
63445;DHT22;49573;47.682;9.170;2023-05-16T06:49:00;13.70;76.90
63445;DHT22;49573;47.682;9.170;2023-05-16T06:51:46;13.80;76.90
63445;DHT22;49573;47.682;9.170;2023-05-16T06:54:32;13.90;77.20
63445;DHT22;49573;47.682;9.170;2023-05-16T06:57:18;14.00;76.80
63445;DHT22;49573;47.682;9.170;2023-05-16T07:00:07;14.00;76.30
63445;DHT22;49573;47.682;9.170;2023-05-16T07:02:53;14.30;75.70
63445;DHT22;49573;47.682;9.170;2023-05-16T07:05:39;14.20;75.20
63445;DHT22;49573;47.682;9.170;2023-05-16T07:08:26;14.20;75.40
63445;DHT22;49573;47.682;9.170;2023-05-16T07:11:12;14.40;75.80
63445;DHT22;49573;47.682;9.170;2023-05-16T07:13:58;14.40;74.30
63445;DHT22;49573;47.682;9.170;2023-05-16T07:16:46;14.50;74.50
63445;DHT22;49573;47.682;9.170;2023-05-16T07:19:32;14.70;74.50
63445;DHT22;49573;47.682;9.170;2023-05-16T07:22:18;14.80;74.90
63445;DHT22;49573;47.682;9.170;2023-05-16T07:25:05;14.90;73.80
63445;DHT22;49573;47.682;9.170;2023-05-16T07:27:51;14.90;73.30
63445;DHT22;49573;47.682;9.170;2023-05-16T07:30:38;15.30;74.00
63445;DHT22;49573;47.682;9.170;2023-05-16T07:33:25;15.30;72.30
63445;DHT22;49573;47.682;9.170;2023-05-16T07:36:12;15.30;72.50
63445;DHT22;49573;47.682;9.170;2023-05-16T07:38:58;15.20;72.50
63445;DHT22;49573;47.682;9.170;2023-05-16T07:41:44;15.30;71.60
63445;DHT22;49573;47.682;9.170;2023-05-16T07:44:30;15.60;71.00
63445;DHT22;49573;47.682;9.170;2023-05-16T07:47:16;15.80;69.90
63445;DHT22;49573;47.682;9.170;2023-05-16T07:50:04;15.80;70.10
63445;DHT22;49573;47.682;9.170;2023-05-16T07:52:50;16.20;70.20
63445;DHT22;49573;47.682;9.170;2023-05-16T07:55:37;16.50;69.90
63445;DHT22;49573;47.682;9.170;2023-05-16T07:58:23;16.50;69.00
63445;DHT22;49573;47.682;9.170;2023-05-16T08:01:09;16.40;67.60
63445;DHT22;49573;47.682;9.170;2023-05-16T08:03:55;16.20;67.70
63445;DHT22;49573;47.682;9.170;2023-05-16T08:06:42;16.30;68.40
63445;DHT22;49573;47.682;9.170;2023-05-16T08:09:28;16.50;68.10
63445;DHT22;49573;47.682;9.170;2023-05-16T08:12:14;16.30;68.90
63445;DHT22;49573;47.682;9.170;2023-05-16T08:15:00;16.30;68.90
63445;DHT22;49573;47.682;9.170;2023-05-16T08:17:46;16.40;68.30
63445;DHT22;49573;47.682;9.170;2023-05-16T08:20:32;16.40;67.30
63445;DHT22;49573;47.682;9.170;2023-05-16T08:23:20;16.70;68.20
63445;DHT22;49573;47.682;9.170;2023-05-16T08:26:06;16.70;66.70
63445;DHT22;49573;47.682;9.170;2023-05-16T08:28:52;16.80;67.50
63445;DHT22;49573;47.682;9.170;2023-05-16T08:31:38;16.70;66.70
63445;DHT22;49573;47.682;9.170;2023-05-16T08:34:24;16.70;67.20
63445;DHT22;49573;47.682;9.170;2023-05-16T08:37:10;16.70;66.90
63445;DHT22;49573;47.682;9.170;2023-05-16T08:39:58;16.50;66.00
63445;DHT22;49573;47.682;9.170;2023-05-16T08:42:44;16.60;66.10
63445;DHT22;49573;47.682;9.170;2023-05-16T08:45:31;16.40;66.90
63445;DHT22;49573;47.682;9.170;2023-05-16T08:48:22;16.40;65.90
63445;DHT22;49573;47.682;9.170;2023-05-16T08:51:09;16.30;66.40
63445;DHT22;49573;47.682;9.170;2023-05-16T08:53:56;16.30;67.10
63445;DHT22;49573;47.682;9.170;2023-05-16T08:56:44;16.40;67.20
63445;DHT22;49573;47.682;9.170;2023-05-16T08:59:30;16.40;67.00
63445;DHT22;49573;47.682;9.170;2023-05-16T09:02:17;16.30;66.50
63445;DHT22;49573;47.682;9.170;2023-05-16T09:05:03;16.20;66.80
63445;DHT22;49573;47.682;9.170;2023-05-16T09:07:50;16.30;67.10
63445;DHT22;49573;47.682;9.170;2023-05-16T09:10:36;16.20;65.90
63445;DHT22;49573;47.682;9.170;2023-05-16T09:13:24;16.20;66.60
63445;DHT22;49573;47.682;9.170;2023-05-16T09:16:12;16.20;67.30
63445;DHT22;49573;47.682;9.170;2023-05-16T09:18:59;16.00;68.20
63445;DHT22;49573;47.682;9.170;2023-05-16T09:21:46;15.70;67.70
63445;DHT22;49573;47.682;9.170;2023-05-16T09:24:32;15.70;68.00
63445;DHT22;49573;47.682;9.170;2023-05-16T09:27:19;15.90;68.30
63445;DHT22;49573;47.682;9.170;2023-05-16T09:30:08;15.60;67.30
63445;DHT22;49573;47.682;9.170;2023-05-16T09:32:54;15.80;67.90
63445;DHT22;49573;47.682;9.170;2023-05-16T09:35:40;15.80;67.90
63445;DHT22;49573;47.682;9.170;2023-05-16T09:38:27;15.80;68.30
63445;DHT22;49573;47.682;9.170;2023-05-16T09:41:13;15.80;69.40
63445;DHT22;49573;47.682;9.170;2023-05-16T09:44:03;15.90;69.30
63445;DHT22;49573;47.682;9.170;2023-05-16T09:46:53;15.80;69.90
63445;DHT22;49573;47.682;9.170;2023-05-16T09:49:39;15.70;70.70
63445;DHT22;49573;47.682;9.170;2023-05-16T09:52:26;15.50;70.90
63445;DHT22;49573;47.682;9.170;2023-05-16T09:55:12;15.40;71.80
63445;DHT22;49573;47.682;9.170;2023-05-16T09:57:58;15.30;72.20
63445;DHT22;49573;47.682;9.170;2023-05-16T10:00:44;15.20;72.80
63445;DHT22;49573;47.682;9.170;2023-05-16T10:03:34;15.10;73.90
63445;DHT22;49573;47.682;9.170;2023-05-16T10:06:21;15.00;74.40
63445;DHT22;49573;47.682;9.170;2023-05-16T10:09:10;14.90;74.00
63445;DHT22;49573;47.682;9.170;2023-05-16T10:11:59;14.90;74.00
63445;DHT22;49573;47.682;9.170;2023-05-16T10:14:47;14.70;73.70
63445;DHT22;49573;47.682;9.170;2023-05-16T10:17:38;14.70;74.90
63445;DHT22;49573;47.682;9.170;2023-05-16T10:20:26;14.70;75.70
63445;DHT22;49573;47.682;9.170;2023-05-16T10:23:16;14.60;75.30
63445;DHT22;49573;47.682;9.170;2023-05-16T10:26:03;14.50;75.60
63445;DHT22;49573;47.682;9.170;2023-05-16T10:28:52;14.40;76.60
63445;DHT22;49573;47.682;9.170;2023-05-16T10:31:38;14.30;77.40
63445;DHT22;49573;47.682;9.170;2023-05-16T10:34:25;14.20;78.00
63445;DHT22;49573;47.682;9.170;2023-05-16T10:37:12;14.20;77.20
63445;DHT22;49573;47.682;9.170;2023-05-16T10:40:00;14.10;78.10
63445;DHT22;49573;47.682;9.170;2023-05-16T10:42:55;14.00;79.00
63445;DHT22;49573;47.682;9.170;2023-05-16T10:45:41;14.00;79.20
63445;DHT22;49573;47.682;9.170;2023-05-16T10:48:28;14.20;79.00
63445;DHT22;49573;47.682;9.170;2023-05-16T10:51:37;14.30;78.20
63445;DHT22;49573;47.682;9.170;2023-05-16T10:54:33;14.50;77.80
63445;DHT22;49573;47.682;9.170;2023-05-16T10:57:22;14.50;77.50
63445;DHT22;49573;47.682;9.170;2023-05-16T11:00:20;14.50;78.70
63445;DHT22;49573;47.682;9.170;2023-05-16T11:03:21;14.40;77.80
63445;DHT22;49573;47.682;9.170;2023-05-16T11:06:10;14.40;77.80
63445;DHT22;49573;47.682;9.170;2023-05-16T11:09:21;14.40;78.20
63445;DHT22;49573;47.682;9.170;2023-05-16T11:12:09;14.30;78.40
63445;DHT22;49573;47.682;9.170;2023-05-16T11:14:57;14.30;78.20
63445;DHT22;49573;47.682;9.170;2023-05-16T11:17:43;14.30;78.70
63445;DHT22;49573;47.682;9.170;2023-05-16T11:20:30;14.10;78.70
63445;DHT22;49573;47.682;9.170;2023-05-16T11:23:19;14.30;78.50
63445;DHT22;49573;47.682;9.170;2023-05-16T11:26:08;14.30;77.10
63445;DHT22;49573;47.682;9.170;2023-05-16T11:28:56;14.30;78.40
63445;DHT22;49573;47.682;9.170;2023-05-16T11:31:43;14.30;76.80
63445;DHT22;49573;47.682;9.170;2023-05-16T11:34:29;14.00;77.60
63445;DHT22;49573;47.682;9.170;2023-05-16T11:37:16;13.80;78.20
63445;DHT22;49573;47.682;9.170;2023-05-16T11:40:03;13.70;78.20
63445;DHT22;49573;47.682;9.170;2023-05-16T11:42:49;13.90;78.30
63445;DHT22;49573;47.682;9.170;2023-05-16T11:45:37;13.90;77.50
63445;DHT22;49573;47.682;9.170;2023-05-16T11:48:23;14.10;77.50
63445;DHT22;49573;47.682;9.170;2023-05-16T11:51:10;14.00;77.70
63445;DHT22;49573;47.682;9.170;2023-05-16T11:53:56;14.10;77.10
63445;DHT22;49573;47.682;9.170;2023-05-16T11:56:42;14.00;76.40
63445;DHT22;49573;47.682;9.170;2023-05-16T11:59:28;14.10;77.20
63445;DHT22;49573;47.682;9.170;2023-05-16T12:02:16;14.10;76.20
63445;DHT22;49573;47.682;9.170;2023-05-16T12:05:06;14.10;75.90
63445;DHT22;49573;47.682;9.170;2023-05-16T12:07:54;14.30;75.80
63445;DHT22;49573;47.682;9.170;2023-05-16T12:10:41;14.20;75.60
63445;DHT22;49573;47.682;9.170;2023-05-16T12:13:27;14.40;74.40
63445;DHT22;49573;47.682;9.170;2023-05-16T12:16:13;14.40;75.10
63445;DHT22;49573;47.682;9.170;2023-05-16T12:19:01;14.50;74.90
63445;DHT22;49573;47.682;9.170;2023-05-16T12:21:52;14.60;74.20
63445;DHT22;49573;47.682;9.170;2023-05-16T12:24:39;14.70;74.30
63445;DHT22;49573;47.682;9.170;2023-05-16T12:27:26;14.60;72.40
63445;DHT22;49573;47.682;9.170;2023-05-16T12:30:12;14.70;73.60
63445;DHT22;49573;47.682;9.170;2023-05-16T12:32:59;14.70;74.50
63445;DHT22;49573;47.682;9.170;2023-05-16T12:35:47;14.80;72.50
63445;DHT22;49573;47.682;9.170;2023-05-16T12:38:34;14.80;73.90
63445;DHT22;49573;47.682;9.170;2023-05-16T12:41:21;14.80;72.80
63445;DHT22;49573;47.682;9.170;2023-05-16T12:44:11;14.80;73.50
63445;DHT22;49573;47.682;9.170;2023-05-16T12:46:58;14.90;74.40
63445;DHT22;49573;47.682;9.170;2023-05-16T12:49:44;14.70;73.10
63445;DHT22;49573;47.682;9.170;2023-05-16T12:52:32;14.60;70.90
63445;DHT22;49573;47.682;9.170;2023-05-16T12:55:20;14.50;72.40
63445;DHT22;49573;47.682;9.170;2023-05-16T12:58:06;14.50;72.00
63445;DHT22;49573;47.682;9.170;2023-05-16T13:00:52;14.80;73.40
63445;DHT22;49573;47.682;9.170;2023-05-16T13:03:38;14.80;72.50
63445;DHT22;49573;47.682;9.170;2023-05-16T13:06:25;15.00;73.20
63445;DHT22;49573;47.682;9.170;2023-05-16T13:09:12;14.80;71.40
63445;DHT22;49573;47.682;9.170;2023-05-16T13:11:59;14.80;71.60
63445;DHT22;49573;47.682;9.170;2023-05-16T13:14:45;15.00;73.60
63445;DHT22;49573;47.682;9.170;2023-05-16T13:17:31;15.00;71.30
63445;DHT22;49573;47.682;9.170;2023-05-16T13:20:17;15.00;71.20
63445;DHT22;49573;47.682;9.170;2023-05-16T13:23:03;15.20;70.60
63445;DHT22;49573;47.682;9.170;2023-05-16T13:25:53;15.30;71.70
63445;DHT22;49573;47.682;9.170;2023-05-16T13:28:40;15.40;71.30
63445;DHT22;49573;47.682;9.170;2023-05-16T13:31:26;15.40;70.70
63445;DHT22;49573;47.682;9.170;2023-05-16T13:34:12;15.50;72.00
63445;DHT22;49573;47.682;9.170;2023-05-16T13:36:58;15.40;71.00
63445;DHT22;49573;47.682;9.170;2023-05-16T13:39:44;15.40;70.70
63445;DHT22;49573;47.682;9.170;2023-05-16T13:42:32;15.30;69.70
63445;DHT22;49573;47.682;9.170;2023-05-16T13:45:19;15.20;71.90
63445;DHT22;49573;47.682;9.170;2023-05-16T13:48:05;15.20;71.10
63445;DHT22;49573;47.682;9.170;2023-05-16T13:50:52;15.00;70.60
63445;DHT22;49573;47.682;9.170;2023-05-16T13:53:38;14.90;69.60
63445;DHT22;49573;47.682;9.170;2023-05-16T13:56:24;14.80;70.70
63445;DHT22;49573;47.682;9.170;2023-05-16T13:59:12;14.90;70.70
63445;DHT22;49573;47.682;9.170;2023-05-16T14:01:58;14.90;71.50
63445;DHT22;49573;47.682;9.170;2023-05-16T14:04:44;14.80;70.70
63445;DHT22;49573;47.682;9.170;2023-05-16T14:07:30;14.70;73.20
63445;DHT22;49573;47.682;9.170;2023-05-16T14:10:16;14.60;72.80
63445;DHT22;49573;47.682;9.170;2023-05-16T14:13:02;14.50;74.00
63445;DHT22;49573;47.682;9.170;2023-05-16T14:15:49;14.50;72.80
63445;DHT22;49573;47.682;9.170;2023-05-16T14:18:36;14.50;73.20
63445;DHT22;49573;47.682;9.170;2023-05-16T14:21:22;14.40;74.60
63445;DHT22;49573;47.682;9.170;2023-05-16T14:24:09;14.40;74.40
63445;DHT22;49573;47.682;9.170;2023-05-16T14:26:55;14.30;73.90
63445;DHT22;49573;47.682;9.170;2023-05-16T14:29:41;14.30;73.00
63445;DHT22;49573;47.682;9.170;2023-05-16T14:32:28;14.30;73.50
63445;DHT22;49573;47.682;9.170;2023-05-16T14:35:14;14.30;73.00
63445;DHT22;49573;47.682;9.170;2023-05-16T14:38:01;14.20;73.00
63445;DHT22;49573;47.682;9.170;2023-05-16T14:40:47;14.10;72.40
63445;DHT22;49573;47.682;9.170;2023-05-16T14:43:33;14.20;73.50
63445;DHT22;49573;47.682;9.170;2023-05-16T14:46:19;14.20;74.00
63445;DHT22;49573;47.682;9.170;2023-05-16T14:49:06;14.20;72.80
63445;DHT22;49573;47.682;9.170;2023-05-16T14:51:53;14.20;73.90
63445;DHT22;49573;47.682;9.170;2023-05-16T14:54:40;14.20;73.60
63445;DHT22;49573;47.682;9.170;2023-05-16T14:57:26;14.20;73.20
63445;DHT22;49573;47.682;9.170;2023-05-16T15:00:14;14.20;73.00
63445;DHT22;49573;47.682;9.170;2023-05-16T15:03:01;14.20;74.00
63445;DHT22;49573;47.682;9.170;2023-05-16T15:05:49;14.30;74.20
63445;DHT22;49573;47.682;9.170;2023-05-16T15:08:35;14.20;74.00
63445;DHT22;49573;47.682;9.170;2023-05-16T15:11:23;14.10;75.50
63445;DHT22;49573;47.682;9.170;2023-05-16T15:14:09;13.80;74.50
63445;DHT22;49573;47.682;9.170;2023-05-16T15:16:55;14.00;74.90
63445;DHT22;49573;47.682;9.170;2023-05-16T15:19:41;14.00;74.30
63445;DHT22;49573;47.682;9.170;2023-05-16T15:22:28;13.80;74.00
63445;DHT22;49573;47.682;9.170;2023-05-16T15:25:14;13.80;75.10
63445;DHT22;49573;47.682;9.170;2023-05-16T15:28:00;13.70;74.90
63445;DHT22;49573;47.682;9.170;2023-05-16T15:30:47;13.70;74.70
63445;DHT22;49573;47.682;9.170;2023-05-16T15:33:33;13.70;75.30
63445;DHT22;49573;47.682;9.170;2023-05-16T15:36:19;13.70;74.90
63445;DHT22;49573;47.682;9.170;2023-05-16T15:39:07;13.70;74.90
63445;DHT22;49573;47.682;9.170;2023-05-16T15:41:53;13.60;75.00
63445;DHT22;49573;47.682;9.170;2023-05-16T15:44:39;13.50;74.10
63445;DHT22;49573;47.682;9.170;2023-05-16T15:47:26;13.50;74.90
63445;DHT22;49573;47.682;9.170;2023-05-16T15:50:13;13.40;75.20
63445;DHT22;49573;47.682;9.170;2023-05-16T15:52:59;13.30;74.80
63445;DHT22;49573;47.682;9.170;2023-05-16T15:55:46;13.40;75.80
63445;DHT22;49573;47.682;9.170;2023-05-16T15:58:33;13.30;74.00
63445;DHT22;49573;47.682;9.170;2023-05-16T16:01:19;13.40;75.30
63445;DHT22;49573;47.682;9.170;2023-05-16T16:04:05;13.30;75.00
63445;DHT22;49573;47.682;9.170;2023-05-16T16:06:51;13.40;74.90
63445;DHT22;49573;47.682;9.170;2023-05-16T16:09:37;13.40;74.80
63445;DHT22;49573;47.682;9.170;2023-05-16T16:12:27;13.30;74.80
63445;DHT22;49573;47.682;9.170;2023-05-16T16:15:13;13.30;75.20
63445;DHT22;49573;47.682;9.170;2023-05-16T16:18:00;13.30;75.10
63445;DHT22;49573;47.682;9.170;2023-05-16T16:20:46;13.40;74.80
63445;DHT22;49573;47.682;9.170;2023-05-16T16:23:32;13.30;74.70
63445;DHT22;49573;47.682;9.170;2023-05-16T16:26:18;13.10;74.30
63445;DHT22;49573;47.682;9.170;2023-05-16T16:29:05;13.20;74.30
63445;DHT22;49573;47.682;9.170;2023-05-16T16:31:51;13.10;74.60
63445;DHT22;49573;47.682;9.170;2023-05-16T16:34:37;13.00;74.30
63445;DHT22;49573;47.682;9.170;2023-05-16T16:37:24;12.90;73.90
63445;DHT22;49573;47.682;9.170;2023-05-16T16:40:10;12.80;74.30
63445;DHT22;49573;47.682;9.170;2023-05-16T16:42:56;12.80;74.30
63445;DHT22;49573;47.682;9.170;2023-05-16T16:45:44;12.70;74.90
63445;DHT22;49573;47.682;9.170;2023-05-16T16:48:30;12.70;74.70
63445;DHT22;49573;47.682;9.170;2023-05-16T16:51:19;12.50;75.50
63445;DHT22;49573;47.682;9.170;2023-05-16T16:54:05;12.50;75.40
63445;DHT22;49573;47.682;9.170;2023-05-16T16:56:51;12.50;75.30
63445;DHT22;49573;47.682;9.170;2023-05-16T16:59:37;12.40;74.70
63445;DHT22;49573;47.682;9.170;2023-05-16T17:02:24;12.40;74.50
63445;DHT22;49573;47.682;9.170;2023-05-16T17:05:11;12.40;74.70
63445;DHT22;49573;47.682;9.170;2023-05-16T17:07:57;12.30;75.40
63445;DHT22;49573;47.682;9.170;2023-05-16T17:10:47;12.30;75.70
63445;DHT22;49573;47.682;9.170;2023-05-16T17:13:38;12.30;76.00
63445;DHT22;49573;47.682;9.170;2023-05-16T17:16:26;12.30;76.40
63445;DHT22;49573;47.682;9.170;2023-05-16T17:19:15;12.10;76.40
63445;DHT22;49573;47.682;9.170;2023-05-16T17:22:01;12.00;76.80
63445;DHT22;49573;47.682;9.170;2023-05-16T17:24:47;11.90;77.10
63445;DHT22;49573;47.682;9.170;2023-05-16T17:27:33;11.90;77.40
63445;DHT22;49573;47.682;9.170;2023-05-16T17:30:20;11.80;77.40
63445;DHT22;49573;47.682;9.170;2023-05-16T17:33:06;11.90;77.50
63445;DHT22;49573;47.682;9.170;2023-05-16T17:35:55;11.80;77.80
63445;DHT22;49573;47.682;9.170;2023-05-16T17:38:41;11.70;78.30